Terminal Aerodrome Forecast
Issued by NWS Twin Cities, MN

Home | Current Version | Previous Version | Text Only | Print | Product List | Glossary Off
Versions: 1 2 3 4 5 6 7 8 9 10 11 12 13 14 15 16

371
FTUS43 KMPX 301904 AAA
TAFEAU
TAF AMD
KEAU 301904Z 3019/0118 VRB05KT P6SM SCT008 OVC012
      TEMPO 3019/3022 6SM -RA BR BKN008 OVC012
     FM302200 VRB03KT 5SM -RASN BR OVC010
     FM010200 31005KT P6SM VCSH OVC010
     FM010600 30006KT P6SM OVC012
     FM011200 33008KT P6SM OVC015=

USA.gov is the U.S. government's official web portal to all federal, state and local government web resources and services.